Time;durP1;ratioP1;P1;durP2;ratioP2;P2;SDS_P1;SDS_P2;PMS_P1;PMS_P2;Temp;Humidity;BMP_temperature;BMP_pressure;BME280_temperature;BME280_humidity;BME280_pressure;Samples;Min_cycle;Max_cycle;Signal;HPM_P1;HPM_P2
2023/04/22 00:00:48;;;;;;;;;;;;;;;9.85;51.40;101436.94;5080560;28;19960;-70
2023/04/22 00:03:14;;;;;;;;;;;;;;;9.90;51.21;101426.31;5067770;28;20022;-71
2023/04/22 00:05:40;;;;;;;;;;;;;;;9.94;50.70;101422.06;5064676;28;19954;-71
2023/04/22 00:08:06;;;;;;;;;;;;;;;9.84;51.38;101424.63;5084030;28;19952;-71
2023/04/22 00:10:31;;;;;;;;;;;;;;;9.80;51.35;101410.13;5072959;28;20402;-73
2023/04/22 00:12:57;;;;;;;;;;;;;;;9.85;51.29;101415.56;5101239;28;19935;-72
2023/04/22 00:15:24;;;;;;;;;;;;;;;9.69;52.03;101411.88;5098654;28;19948;-72
2023/04/22 00:17:49;;;;;;;;;;;;;;;9.83;51.48;101401.63;5074415;28;19949;-72
2023/04/22 00:20:15;;;;;;;;;;;;;;;9.79;51.52;101408.50;5103253;28;19933;-70
2023/04/22 00:22:41;;;;;;;;;;;;;;;9.84;51.25;101401.38;5085991;28;20037;-70
2023/04/22 00:25:07;;;;;;;;;;;;;;;9.84;51.81;101400.56;5067442;28;20031;-72
2023/04/22 00:27:32;;;;;;;;;;;;;;;9.76;52.04;101393.78;5080581;28;19955;-70
2023/04/22 00:29:58;;;;;;;;;;;;;;;9.80;51.97;101389.53;5078752;28;19942;-70
2023/04/22 00:32:23;;;;;;;;;;;;;;;9.65;52.51;101385.88;5064404;28;19936;-70
2023/04/22 00:34:49;;;;;;;;;;;;;;;9.51;53.27;101385.41;5069290;28;19958;-70
2023/04/22 00:37:15;;;;;;;;;;;;;;;9.63;52.77;101382.63;5103638;28;20000;-70
2023/04/22 00:39:40;;;;;;;;;;;;;;;9.51;53.80;101386.22;5099791;28;19975;-70
2023/04/22 00:42:09;;;;;;;;;;;;;;;9.45;53.90;101379.19;5078813;28;19978;-70
2023/04/22 00:44:35;;;;;;;;;;;;;;;9.56;53.59;101367.56;5096624;28;19984;-73
2023/04/22 00:47:00;;;;;;;;;;;;;;;9.51;53.73;101370.16;5096989;27;19951;-70
2023/04/22 00:49:29;;;;;;;;;;;;;;;9.44;53.84;101374.09;5078270;28;19938;-71
2023/04/22 00:51:54;;;;;;;;;;;;;;;9.68;52.72;101371.97;5078077;28;20311;-71
2023/04/22 00:54:20;;;;;;;;;;;;;;;9.85;52.51;101365.53;5084266;28;20491;-71
2023/04/22 00:56:46;;;;;;;;;;;;;;;10.05;51.73;101359.59;5085262;28;19977;-70
2023/04/22 00:59:11;;;;;;;;;;;;;;;10.02;52.05;101353.94;5069460;28;19940;-71
2023/04/22 01:01:37;;;;;;;;;;;;;;;9.91;52.30;101358.38;5099357;28;19938;-70
2023/04/22 01:04:03;;;;;;;;;;;;;;;9.87;52.57;101354.56;5067460;28;19945;-69
2023/04/22 01:06:29;;;;;;;;;;;;;;;9.91;52.45;101363.72;5062616;28;20053;-70
2023/04/22 01:08:55;;;;;;;;;;;;;;;9.90;52.70;101367.47;5067189;28;20037;-72
2023/04/22 01:11:20;;;;;;;;;;;;;;;9.93;52.93;101366.94;5085464;28;20375;-70
2023/04/22 01:13:46;;;;;;;;;;;;;;;9.98;52.38;101363.53;5081184;28;19972;-70
2023/04/22 01:16:11;;;;;;;;;;;;;;;9.84;52.88;101361.25;5084209;28;19976;-71
2023/04/22 01:18:37;;;;;;;;;;;;;;;9.80;53.04;101356.63;5081698;28;20025;-69
2023/04/22 01:21:03;;;;;;;;;;;;;;;9.79;53.07;101355.00;5065384;28;20316;-70
2023/04/22 01:23:29;;;;;;;;;;;;;;;9.70;53.52;101354.66;5097322;28;20397;-70
2023/04/22 01:25:55;;;;;;;;;;;;;;;9.61;54.14;101357.97;5069621;28;19968;-71
2023/04/22 01:28:21;;;;;;;;;;;;;;;9.56;54.23;101346.19;5083682;28;19946;-70
2023/04/22 01:30:48;;;;;;;;;;;;;;;9.60;53.98;101343.00;5085046;28;20007;-70
2023/04/22 01:33:14;;;;;;;;;;;;;;;9.65;53.73;101346.56;5089412;28;19935;-68
2023/04/22 01:35:40;;;;;;;;;;;;;;;9.58;53.83;101346.72;5072151;28;19949;-69
2023/04/22 01:38:07;;;;;;;;;;;;;;;9.52;54.19;101345.03;5050862;28;20525;-71
2023/04/22 01:40:33;;;;;;;;;;;;;;;9.61;54.04;101336.59;5066299;28;20314;-74
2023/04/22 01:42:59;;;;;;;;;;;;;;;9.57;53.75;101331.75;5049236;28;19936;-71
2023/04/22 01:45:25;;;;;;;;;;;;;;;9.61;53.73;101332.03;5080455;28;20048;-73
2023/04/22 01:47:51;;;;;;;;;;;;;;;9.56;54.15;101324.78;5089876;28;20016;-72
2023/04/22 01:50:19;;;;;;;;;;;;;;;9.65;53.83;101325.16;5106752;28;19937;-72
2023/04/22 01:52:44;;;;;;;;;;;;;;;9.58;54.04;101328.00;5087909;28;19931;-71
2023/04/22 01:55:10;;;;;;;;;;;;;;;9.56;54.17;101327.47;5082656;28;19998;-70
2023/04/22 01:57:35;;;;;;;;;;;;;;;9.64;53.66;101320.88;5105489;28;20008;-70
2023/04/22 02:00:01;;;;;;;;;;;;;;;9.63;53.53;101319.25;5071548;28;20014;-69
2023/04/22 02:02:38;;;;;;;;;;;;;;;9.56;53.89;101313.28;5085911;28;19959;-71
2023/04/22 02:05:05;;;;;;;;;;;;;;;9.58;54.16;101311.97;5080979;28;20046;-71
2023/04/22 02:07:33;;;;;;;;;;;;;;;9.43;54.48;101321.66;5096893;27;19964;-70
2023/04/22 02:09:58;;;;;;;;;;;;;;;9.40;54.71;101311.47;5082496;28;19999;-70
2023/04/22 02:12:24;;;;;;;;;;;;;;;9.22;55.53;101318.72;5065091;28;19988;-72
2023/04/22 02:14:49;;;;;;;;;;;;;;;9.12;56.32;101312.41;5065265;28;19955;-72
2023/04/22 02:17:17;;;;;;;;;;;;;;;9.10;56.25;101306.53;5087053;28;20548;-73
2023/04/22 02:19:44;;;;;;;;;;;;;;;9.09;55.98;101294.22;5086039;28;19936;-71
2023/04/22 02:22:10;;;;;;;;;;;;;;;9.07;56.08;101301.66;5080354;28;19938;-69
2023/04/22 02:24:35;;;;;;;;;;;;;;;9.15;55.69;101306.59;5081398;28;19933;-70
2023/04/22 02:27:01;;;;;;;;;;;;;;;9.09;56.18;101296.88;5062348;28;19948;-70
2023/04/22 02:29:31;;;;;;;;;;;;;;;9.02;56.55;101292.53;5084715;28;19943;-71
2023/04/22 02:31:58;;;;;;;;;;;;;;;8.83;57.56;101307.19;5068469;28;20672;-71
2023/04/22 02:34:24;;;;;;;;;;;;;;;8.58;58.72;101299.59;5068416;28;20314;-74
2023/04/22 02:36:52;;;;;;;;;;;;;;;8.52;59.25;101297.88;5070320;28;19996;-71
2023/04/22 02:39:18;;;;;;;;;;;;;;;8.62;58.49;101291.91;5068614;28;20045;-71
2023/04/22 02:41:43;;;;;;;;;;;;;;;8.61;58.13;101280.44;5066649;28;20021;-72
2023/04/22 02:44:10;;;;;;;;;;;;;;;8.60;58.18;101275.31;5086335;28;20352;-71
2023/04/22 02:46:36;;;;;;;;;;;;;;;8.63;58.41;101274.84;5084331;28;19943;-71
2023/04/22 02:49:04;;;;;;;;;;;;;;;8.60;58.61;101273.47;5070150;28;19971;-70
2023/04/22 02:51:32;;;;;;;;;;;;;;;8.72;57.71;101276.84;5083535;28;19927;-71
2023/04/22 02:53:59;;;;;;;;;;;;;;;8.68;58.05;101274.91;5069418;28;19966;-71
2023/04/22 02:56:26;;;;;;;;;;;;;;;8.70;57.87;101278.16;5103505;28;19995;-72
2023/04/22 02:58:52;;;;;;;;;;;;;;;8.42;59.34;101269.19;5085586;28;19932;-72
2023/04/22 03:01:17;;;;;;;;;;;;;;;8.18;60.31;101273.00;5070384;28;19937;-72
2023/04/22 03:03:45;;;;;;;;;;;;;;;8.06;61.52;101274.91;5068548;28;20037;-69
2023/04/22 03:06:17;;;;;;;;;;;;;;;7.92;62.96;101282.38;5083730;28;20035;-73
2023/04/22 03:08:43;;;;;;;;;;;;;;;7.82;62.39;101267.03;5068279;28;20031;-71
2023/04/22 03:11:09;;;;;;;;;;;;;;;7.64;64.04;101261.84;5081752;28;19945;-73
2023/04/22 03:13:34;;;;;;;;;;;;;;;7.78;62.69;101249.88;5095728;28;19972;-70
2023/04/22 03:16:00;;;;;;;;;;;;;;;8.10;60.98;101262.72;5055904;28;19962;-69
2023/04/22 03:18:25;;;;;;;;;;;;;;;8.01;60.99;101246.31;5084770;28;20020;-70
2023/04/22 03:20:51;;;;;;;;;;;;;;;8.15;60.46;101249.47;5086622;28;19940;-70
2023/04/22 03:23:17;;;;;;;;;;;;;;;8.15;60.52;101246.81;5037083;28;1334126;-70
2023/04/22 03:25:42;;;;;;;;;;;;;;;8.22;60.07;101244.78;5089826;28;20344;-69
2023/04/22 03:28:08;;;;;;;;;;;;;;;8.26;59.99;101242.44;5078254;28;20548;-69
2023/04/22 03:30:33;;;;;;;;;;;;;;;8.20;60.30;101244.22;5090476;28;19933;-70
2023/04/22 03:32:59;;;;;;;;;;;;;;;8.27;60.16;101247.56;5071842;28;19927;-70
2023/04/22 03:35:34;;;;;;;;;;;;;;;8.28;60.11;101249.16;5082031;28;19995;-69
2023/04/22 03:38:00;;;;;;;;;;;;;;;8.13;60.76;101251.59;5084192;28;20124;-71
2023/04/22 03:40:32;;;;;;;;;;;;;;;7.84;62.68;101250.78;5074532;28;19950;-70
2023/04/22 03:42:59;;;;;;;;;;;;;;;7.77;62.57;101242.09;5088747;28;19973;-71
2023/04/22 03:45:25;;;;;;;;;;;;;;;7.87;61.66;101240.44;5073013;28;19972;-70
2023/04/22 03:48:15;;;;;;;;;;;;;;;7.83;61.96;101235.81;5071629;28;19994;-70
2023/04/22 03:50:46;;;;;;;;;;;;;;;8.05;61.35;101222.59;5084562;28;19962;-70
2023/04/22 03:53:12;;;;;;;;;;;;;;;8.03;61.57;101227.38;5066160;28;20456;-71
2023/04/22 03:55:38;;;;;;;;;;;;;;;8.07;61.29;101220.53;5091047;28;19956;-70
2023/04/22 03:58:04;;;;;;;;;;;;;;;8.12;60.99;101217.91;5073141;28;20472;-71
2023/04/22 04:00:29;;;;;;;;;;;;;;;8.19;60.92;101207.91;5070585;28;19935;-69
2023/04/22 04:03:06;;;;;;;;;;;;;;;8.37;60.18;101205.03;5086779;28;19944;-71
2023/04/22 04:05:31;;;;;;;;;;;;;;;8.25;60.55;101212.28;5080122;28;19935;-70
2023/04/22 04:07:57;;;;;;;;;;;;;;;8.24;60.62;101209.84;5085348;28;19954;-70
2023/04/22 04:10:26;;;;;;;;;;;;;;;8.37;60.36;101205.03;5068982;28;20298;-70
2023/04/22 04:12:53;;;;;;;;;;;;;;;8.35;60.70;101200.97;5102317;28;19939;-70
2023/04/22 04:15:20;;;;;;;;;;;;;;;8.30;60.67;101209.69;5052511;28;20604;-70
2023/04/22 04:17:48;;;;;;;;;;;;;;;8.21;60.83;101209.28;5069940;28;20371;-71
2023/04/22 04:20:15;;;;;;;;;;;;;;;8.29;60.95;101212.63;5074820;28;19932;-70
2023/04/22 04:22:42;;;;;;;;;;;;;;;8.18;61.29;101214.28;5065771;28;19965;-70
2023/04/22 04:25:09;;;;;;;;;;;;;;;8.18;61.56;101212.44;5068753;28;20447;-73
2023/04/22 04:27:40;;;;;;;;;;;;;;;8.16;62.10;101203.06;5052294;28;20057;-70
2023/04/22 04:30:09;;;;;;;;;;;;;;;8.24;61.66;101204.50;5068939;28;19931;-71
2023/04/22 04:32:41;;;;;;;;;;;;;;;8.18;61.80;101190.28;5102000;28;20416;-70
2023/04/22 04:35:11;;;;;;;;;;;;;;;8.21;61.78;101187.94;5069326;28;19961;-72
2023/04/22 04:37:41;;;;;;;;;;;;;;;8.23;61.72;101189.56;5070978;28;20017;-71
2023/04/22 04:40:09;;;;;;;;;;;;;;;8.29;61.04;101197.41;5085620;28;19948;-70
2023/04/22 04:42:46;;;;;;;;;;;;;;;8.29;61.30;101191.25;5082465;28;20017;-70
2023/04/22 04:45:18;;;;;;;;;;;;;;;8.20;61.82;101185.53;5080822;28;20023;-70
2023/04/22 04:47:45;;;;;;;;;;;;;;;8.36;61.07;101182.06;5087723;28;19950;-70
2023/04/22 04:50:21;;;;;;;;;;;;;;;8.45;60.98;101185.94;5068767;28;19936;-69
2023/04/22 04:52:48;;;;;;;;;;;;;;;8.45;60.81;101193.13;5070282;28;19935;-70
2023/04/22 04:55:15;;;;;;;;;;;;;;;8.36;61.65;101182.06;5093590;28;20018;-70
2023/04/22 04:57:42;;;;;;;;;;;;;;;8.43;61.71;101195.25;5065122;28;19955;-70
2023/04/22 05:00:10;;;;;;;;;;;;;;;8.43;62.15;101196.06;5068430;28;20304;-73
2023/04/22 05:02:36;;;;;;;;;;;;;;;8.50;61.34;101184.41;5088367;28;19958;-71
2023/04/22 05:05:02;;;;;;;;;;;;;;;8.45;62.54;101193.94;5105392;28;19984;-71
2023/04/22 05:07:28;;;;;;;;;;;;;;;8.65;61.23;101181.94;5060317;28;20427;-71
2023/04/22 05:09:53;;;;;;;;;;;;;;;8.77;60.68;101181.84;5082871;28;19940;-72
2023/04/22 05:12:20;;;;;;;;;;;;;;;8.83;60.70;101178.19;5071512;28;19989;-72
2023/04/22 05:14:45;;;;;;;;;;;;;;;9.00;59.97;101182.41;5054342;28;19936;-72
2023/04/22 05:17:12;;;;;;;;;;;;;;;9.19;59.61;101182.91;5083710;28;21516;-70
2023/04/22 05:19:37;;;;;;;;;;;;;;;9.28;59.65;101200.16;5080287;28;19939;-71
2023/04/22 05:22:03;;;;;;;;;;;;;;;9.24;60.08;101204.34;5083832;28;20027;-70
2023/04/22 05:24:29;;;;;;;;;;;;;;;9.29;60.44;101195.59;5084030;28;20457;-72
2023/04/22 05:26:57;;;;;;;;;;;;;;;9.40;59.42;101191.97;5082214;28;19952;-72
2023/04/22 05:29:22;;;;;;;;;;;;;;;9.54;59.06;101177.16;5080411;28;19928;-71
2023/04/22 05:31:48;;;;;;;;;;;;;;;9.68;58.55;101166.03;5070532;28;19930;-71
2023/04/22 05:34:14;;;;;;;;;;;;;;;9.83;58.29;101160.88;5099254;28;19954;-70
2023/04/22 05:36:39;;;;;;;;;;;;;;;9.90;57.82;101172.16;5076473;28;20027;-71
2023/04/22 05:39:06;;;;;;;;;;;;;;;9.96;57.94;101179.16;5081677;28;20044;-71
2023/04/22 05:41:33;;;;;;;;;;;;;;;10.06;57.30;101176.56;5070511;28;19947;-71
2023/04/22 05:43:59;;;;;;;;;;;;;;;10.16;57.48;101178.53;5063409;28;19929;-71
2023/04/22 05:46:25;;;;;;;;;;;;;;;10.31;56.88;101172.50;5082626;28;20026;-71
2023/04/22 05:48:51;;;;;;;;;;;;;;;10.33;57.40;101173.06;5086955;28;20038;-72
2023/04/22 05:51:35;;;;;;;;;;;;;;;10.42;57.42;101176.84;5098374;28;19961;-70
2023/04/22 05:54:01;;;;;;;;;;;;;;;10.49;56.54;101172.06;5069919;28;19978;-71
2023/04/22 05:56:29;;;;;;;;;;;;;;;10.54;56.72;101174.00;5068135;28;19995;-71
2023/04/22 05:58:55;;;;;;;;;;;;;;;10.65;56.70;101164.97;5097358;28;19976;-70
2023/04/22 06:01:23;;;;;;;;;;;;;;;10.81;56.33;101160.47;5050685;28;20034;-70
2023/04/22 06:03:58;;;;;;;;;;;;;;;10.92;55.70;101165.63;5065029;28;19932;-72
2023/04/22 06:06:25;;;;;;;;;;;;;;;11.01;55.55;101163.25;5070566;28;19936;-70
2023/04/22 06:08:50;;;;;;;;;;;;;;;11.05;55.68;101161.66;5091441;28;19929;-70
2023/04/22 06:11:15;;;;;;;;;;;;;;;11.15;55.66;101159.00;5096636;28;19938;-71
2023/04/22 06:13:41;;;;;;;;;;;;;;;11.27;55.60;101155.31;5068058;28;19978;-71
2023/04/22 06:16:10;;;;;;;;;;;;;;;11.29;55.04;101153.16;5085066;28;20344;-69
2023/04/22 06:18:36;;;;;;;;;;;;;;;11.48;54.96;101157.75;5062342;28;19949;-70
2023/04/22 06:21:02;;;;;;;;;;;;;;;11.50;55.23;101152.13;5103849;28;20480;-70
2023/04/22 06:23:28;;;;;;;;;;;;;;;11.49;54.94;101162.06;5072339;28;19936;-71
2023/04/22 06:25:55;;;;;;;;;;;;;;;11.57;54.69;101160.72;5086400;28;19935;-70
2023/04/22 06:28:22;;;;;;;;;;;;;;;11.86;54.70;101157.59;5091164;28;20732;-70
2023/04/22 06:30:53;;;;;;;;;;;;;;;11.91;54.90;101147.63;5074415;28;20161;-71
2023/04/22 06:33:19;;;;;;;;;;;;;;;11.96;54.23;101146.84;5091453;28;20174;-71
2023/04/22 06:35:45;;;;;;;;;;;;;;;12.07;54.50;101153.84;5072714;28;20642;-70
2023/04/22 06:38:11;;;;;;;;;;;;;;;11.97;53.61;101143.09;5083626;28;19942;-72
2023/04/22 06:40:45;;;;;;;;;;;;;;;11.97;54.53;101149.25;5079606;28;19975;-71
2023/04/22 06:43:16;;;;;;;;;;;;;;;12.22;54.91;101156.50;5086969;28;19942;-73
2023/04/22 06:46:00;;;;;;;;;;;;;;;12.34;53.84;101158.09;5104377;28;19932;-71
2023/04/22 06:48:38;;;;;;;;;;;;;;;12.39;54.21;101155.38;5081479;28;19979;-70
2023/04/22 06:51:43;;;;;;;;;;;;;;;12.43;53.52;101157.28;5101226;28;19935;-71
2023/04/22 06:54:11;;;;;;;;;;;;;;;12.66;52.99;101153.19;5101918;28;19991;-70
2023/04/22 06:56:40;;;;;;;;;;;;;;;12.55;53.60;101159.69;5087759;28;19954;-70
2023/04/22 06:59:06;;;;;;;;;;;;;;;12.60;52.56;101156.16;5089561;28;20309;-71
2023/04/22 07:01:32;;;;;;;;;;;;;;;12.50;53.04;101135.50;5048538;28;20411;-72
2023/04/22 07:03:58;;;;;;;;;;;;;;;12.54;53.38;101147.31;5070911;28;19932;-70
2023/04/22 07:06:23;;;;;;;;;;;;;;;12.81;53.57;101146.97;5071939;28;19937;-71
2023/04/22 07:08:49;;;;;;;;;;;;;;;13.02;53.26;101143.13;5086662;28;20009;-70
2023/04/22 07:11:15;;;;;;;;;;;;;;;12.97;52.67;101143.13;5087648;28;19938;-70
2023/04/22 07:13:50;;;;;;;;;;;;;;;12.99;52.65;101142.84;5073819;28;20016;-70
2023/04/22 07:16:15;;;;;;;;;;;;;;;13.10;52.34;101144.41;5083773;28;20452;-70
2023/04/22 07:18:41;;;;;;;;;;;;;;;13.16;52.64;101153.28;5103524;28;20530;-70
2023/04/22 07:21:07;;;;;;;;;;;;;;;13.09;52.91;101148.19;5085541;28;19929;-71
2023/04/22 07:23:32;;;;;;;;;;;;;;;13.38;52.63;101143.75;5086902;28;19972;-70
2023/04/22 07:25:57;;;;;;;;;;;;;;;13.53;52.34;101136.66;5083583;28;20296;-69
2023/04/22 07:28:23;;;;;;;;;;;;;;;13.39;51.67;101139.97;5100424;28;19978;-70
2023/04/22 07:30:49;;;;;;;;;;;;;;;13.46;51.72;101134.28;5103556;28;19973;-70
2023/04/22 07:33:15;;;;;;;;;;;;;;;13.59;52.28;101136.34;5080532;28;19939;-72
2023/04/22 07:35:40;;;;;;;;;;;;;;;13.57;52.11;101133.16;5108181;28;20087;-70
2023/04/22 07:38:06;;;;;;;;;;;;;;;13.79;52.74;101130.03;5091205;28;20489;-70
2023/04/22 07:40:32;;;;;;;;;;;;;;;13.90;52.13;101131.56;5061559;28;19924;-71
2023/04/22 07:42:57;;;;;;;;;;;;;;;13.81;52.20;101127.03;5075724;28;19937;-69
2023/04/22 07:45:22;;;;;;;;;;;;;;;14.05;51.61;101127.91;5101423;28;19927;-69
2023/04/22 07:47:48;;;;;;;;;;;;;;;14.20;51.71;101133.16;5090501;28;20082;-69
2023/04/22 07:50:14;;;;;;;;;;;;;;;14.60;51.94;101127.66;5107885;28;19936;-70
2023/04/22 07:52:40;;;;;;;;;;;;;;;14.50;51.75;101122.41;5100298;28;19941;-70
2023/04/22 07:55:06;;;;;;;;;;;;;;;14.25;51.64;101121.53;5100055;28;20069;-70
2023/04/22 07:57:37;;;;;;;;;;;;;;;14.25;51.66;101124.22;5073848;28;19946;-70
2023/04/22 08:00:04;;;;;;;;;;;;;;;14.45;51.56;101109.75;5083697;28;19928;-71
2023/04/22 08:02:37;;;;;;;;;;;;;;;14.64;50.90;101107.16;5085188;28;19941;-69
2023/04/22 08:05:03;;;;;;;;;;;;;;;14.76;51.46;101110.22;5088312;28;19934;-70
2023/04/22 08:07:28;;;;;;;;;;;;;;;15.11;51.27;101102.78;5084885;28;19953;-70
2023/04/22 08:09:55;;;;;;;;;;;;;;;15.20;50.46;101103.72;5084597;28;19939;-71
2023/04/22 08:12:21;;;;;;;;;;;;;;;15.23;50.04;101103.91;5087810;28;19928;-68
2023/04/22 08:14:46;;;;;;;;;;;;;;;15.12;50.00;101091.69;5083470;28;20270;-70
2023/04/22 08:17:12;;;;;;;;;;;;;;;15.10;50.90;101084.97;5082198;28;20397;-71
2023/04/22 08:19:38;;;;;;;;;;;;;;;15.01;50.85;101080.22;5089093;28;20569;-69
2023/04/22 08:22:03;;;;;;;;;;;;;;;14.93;50.70;101090.88;5081672;28;20004;-70
2023/04/22 08:24:29;;;;;;;;;;;;;;;14.78;51.27;101099.97;5086316;28;19931;-70
2023/04/22 08:26:58;;;;;;;;;;;;;;;15.25;50.49;101093.66;5077970;28;19988;-70
2023/04/22 08:29:23;;;;;;;;;;;;;;;15.51;51.20;101088.69;5087275;28;20411;-71
2023/04/22 08:31:49;;;;;;;;;;;;;;;15.80;50.07;101090.41;5082723;28;20017;-69
2023/04/22 08:34:15;;;;;;;;;;;;;;;15.55;50.40;101084.28;5061715;28;19983;-69
2023/04/22 08:36:41;;;;;;;;;;;;;;;15.77;50.64;101080.97;5083610;28;19979;-71
2023/04/22 08:39:06;;;;;;;;;;;;;;;16.16;49.89;101078.97;5103794;28;19938;-72
2023/04/22 08:41:33;;;;;;;;;;;;;;;16.06;49.01;101075.38;5103393;28;20306;-72
2023/04/22 08:43:59;;;;;;;;;;;;;;;16.45;49.50;101068.66;5084280;28;19922;-71
2023/04/22 08:46:25;;;;;;;;;;;;;;;16.66;48.55;101074.44;5086565;28;19929;-72
2023/04/22 08:48:51;;;;;;;;;;;;;;;16.83;48.34;101073.88;5093889;28;20020;-71
2023/04/22 08:51:17;;;;;;;;;;;;;;;16.83;47.74;101063.84;5114443;28;19935;-70
2023/04/22 08:53:43;;;;;;;;;;;;;;;16.64;48.90;101069.34;5072713;28;19926;-70
2023/04/22 08:56:11;;;;;;;;;;;;;;;16.56;49.04;101066.56;5065779;28;19993;-69
2023/04/22 08:58:37;;;;;;;;;;;;;;;16.81;49.58;101066.06;5101175;28;19946;-69
2023/04/22 09:01:03;;;;;;;;;;;;;;;16.98;48.59;101073.53;5066493;28;20065;-70
2023/04/22 09:03:28;;;;;;;;;;;;;;;17.12;46.10;101059.97;5105439;28;20337;-70
2023/04/22 09:05:54;;;;;;;;;;;;;;;17.22;46.40;101067.06;5085309;28;19943;-70
2023/04/22 09:08:19;;;;;;;;;;;;;;;17.48;47.16;101062.66;5091619;28;19945;-70
2023/04/22 09:10:45;;;;;;;;;;;;;;;17.36;46.03;101059.69;5067894;28;19964;-70
2023/04/22 09:13:12;;;;;;;;;;;;;;;17.37;46.15;101072.13;5085184;28;20371;-70
2023/04/22 09:15:37;;;;;;;;;;;;;;;17.68;45.51;101067.56;5091691;28;20392;-71
2023/04/22 09:18:04;;;;;;;;;;;;;;;17.56;46.48;101064.63;5069232;28;20038;-72
2023/04/22 09:20:29;;;;;;;;;;;;;;;17.74;45.64;101065.53;5087444;28;19956;-70
2023/04/22 09:22:56;;;;;;;;;;;;;;;17.80;46.47;101068.94;5085948;28;20675;-71
2023/04/22 09:25:24;;;;;;;;;;;;;;;17.78;45.75;101060.31;5098656;28;20028;-74
2023/04/22 09:27:56;;;;;;;;;;;;;;;17.78;45.26;101071.16;5107776;28;20409;-72
2023/04/22 09:30:26;;;;;;;;;;;;;;;18.12;45.10;101065.13;5098909;28;20859;-70
2023/04/22 09:32:53;;;;;;;;;;;;;;;18.37;44.71;101063.63;5084024;28;19924;-70
2023/04/22 09:35:45;;;;;;;;;;;;;;;18.42;44.32;101058.03;5076431;28;19942;-69
2023/04/22 09:38:11;;;;;;;;;;;;;;;18.68;44.28;101050.81;5090103;28;20413;-69
2023/04/22 09:40:40;;;;;;;;;;;;;;;18.72;43.56;101046.34;5080237;28;20422;-73
2023/04/22 09:43:07;;;;;;;;;;;;;;;18.98;43.25;101034.72;5079199;28;19934;-70
2023/04/22 09:45:36;;;;;;;;;;;;;;;19.03;42.96;101038.09;5086794;28;20390;-71
2023/04/22 09:48:03;;;;;;;;;;;;;;;18.98;43.63;101042.88;5092727;28;20391;-74
2023/04/22 09:50:28;;;;;;;;;;;;;;;19.07;42.70;101040.94;5069530;28;20302;-72
2023/04/22 09:53:03;;;;;;;;;;;;;;;18.88;42.89;101038.53;5084520;28;19941;-72
2023/04/22 09:55:29;;;;;;;;;;;;;;;18.98;43.77;101037.44;5101667;28;19945;-71
2023/04/22 09:57:55;;;;;;;;;;;;;;;19.02;43.12;101022.09;5085196;28;19943;-72
2023/04/22 10:00:26;;;;;;;;;;;;;;;19.45;43.43;101024.81;5066787;28;19944;-73
2023/04/22 10:02:52;;;;;;;;;;;;;;;19.43;42.64;101023.50;5070165;28;19934;-71
2023/04/22 10:05:18;;;;;;;;;;;;;;;19.15;42.36;101021.16;5106611;28;19937;-70
2023/04/22 10:07:43;;;;;;;;;;;;;;;19.57;43.32;101008.63;5085754;28;19967;-71
2023/04/22 10:10:09;;;;;;;;;;;;;;;19.68;42.82;101011.81;5065255;28;20355;-72
2023/04/22 10:12:35;;;;;;;;;;;;;;;20.00;43.12;101015.06;5081218;28;19931;-72
2023/04/22 10:15:01;;;;;;;;;;;;;;;20.05;41.02;101009.44;5101453;27;19956;-71
2023/04/22 10:17:29;;;;;;;;;;;;;;;19.98;41.86;101004.50;5074219;28;19961;-72
2023/04/22 10:19:55;;;;;;;;;;;;;;;20.03;41.98;101004.34;5066254;28;20047;-72
2023/04/22 10:22:21;;;;;;;;;;;;;;;20.29;41.20;100993.31;5067931;28;20065;-74
2023/04/22 10:24:49;;;;;;;;;;;;;;;20.47;42.93;100999.50;5087428;28;19936;-74
2023/04/22 10:27:19;;;;;;;;;;;;;;;19.97;41.52;100991.25;5087025;28;19955;-72
2023/04/22 10:29:45;;;;;;;;;;;;;;;20.01;42.32;100997.63;5061014;28;20029;-71
2023/04/22 10:32:20;;;;;;;;;;;;;;;19.98;42.25;100998.28;5080983;28;20015;-73
2023/04/22 10:34:46;;;;;;;;;;;;;;;20.05;41.43;100993.94;5098072;28;19931;-73
2023/04/22 10:37:18;;;;;;;;;;;;;;;20.12;41.12;100993.44;5112251;27;20409;-72
2023/04/22 10:40:03;;;;;;;;;;;;;;;20.22;39.98;100984.91;5104105;28;19938;-72
2023/04/22 10:42:29;;;;;;;;;;;;;;;20.69;41.25;100973.91;5100695;28;19941;-70
2023/04/22 10:44:59;;;;;;;;;;;;;;;20.85;40.48;100976.81;5069439;28;19935;-71
2023/04/22 10:47:29;;;;;;;;;;;;;;;20.68;40.61;100978.53;5088898;28;20012;-74
2023/04/22 10:50:11;;;;;;;;;;;;;;;20.95;41.15;100966.31;5088062;28;19932;-70
2023/04/22 10:52:36;;;;;;;;;;;;;;;20.90;40.11;100968.44;5100044;28;19952;-72
2023/04/22 10:55:03;;;;;;;;;;;;;;;20.97;40.96;100958.59;5063333;28;20002;-71
2023/04/22 10:57:38;;;;;;;;;;;;;;;20.95;40.03;100958.16;5063202;28;19945;-71
2023/04/22 11:00:23;;;;;;;;;;;;;;;21.12;40.13;100953.66;5065178;28;19926;-70
2023/04/22 11:02:53;;;;;;;;;;;;;;;21.04;39.01;100951.81;5100383;28;19938;-73
2023/04/22 11:05:24;;;;;;;;;;;;;;;20.86;40.55;100941.09;5100118;28;19934;-70
2023/04/22 11:07:51;;;;;;;;;;;;;;;21.06;39.25;100930.50;5082943;28;20403;-70
2023/04/22 11:10:45;;;;;;;;;;;;;;;21.16;39.45;100932.81;5097265;28;19932;-74
2023/04/22 11:13:12;;;;;;;;;;;;;;;21.29;39.28;100929.00;5067523;28;19977;-71
2023/04/22 11:15:39;;;;;;;;;;;;;;;21.27;39.02;100923.88;5087129;27;20320;-72
2023/04/22 11:18:24;;;;;;;;;;;;;;;21.38;38.61;100928.91;5054636;28;19959;-71
2023/04/22 11:20:50;;;;;;;;;;;;;;;21.12;37.78;100927.22;5065467;28;19937;-71
2023/04/22 11:23:16;;;;;;;;;;;;;;;21.79;38.77;100928.72;5083985;28;19937;-71
2023/04/22 11:25:42;;;;;;;;;;;;;;;21.69;37.75;100922.94;5069760;28;20665;-73
2023/04/22 11:28:07;;;;;;;;;;;;;;;22.17;37.85;100926.81;5104482;28;19956;-73
2023/04/22 11:30:33;;;;;;;;;;;;;;;21.78;38.25;100926.34;5087827;28;20460;-72
2023/04/22 11:32:59;;;;;;;;;;;;;;;22.04;37.34;100924.06;5082624;28;20080;-71
2023/04/22 11:35:28;;;;;;;;;;;;;;;22.23;37.87;100915.31;5069387;28;19970;-74
2023/04/22 11:37:54;;;;;;;;;;;;;;;22.12;37.82;100908.75;5098467;28;19947;-75
2023/04/22 11:40:31;;;;;;;;;;;;;;;22.56;38.21;100901.47;5087365;28;19932;-74
2023/04/22 11:42:57;;;;;;;;;;;;;;;22.24;38.50;100900.53;5104650;28;19929;-70
2023/04/22 11:45:23;;;;;;;;;;;;;;;22.61;37.55;100901.22;5084920;28;20391;-73
2023/04/22 11:47:50;;;;;;;;;;;;;;;22.64;37.45;100901.69;5101997;28;19955;-70
2023/04/22 11:50:16;;;;;;;;;;;;;;;22.85;37.42;100891.34;5064595;28;20398;-74
2023/04/22 11:52:44;;;;;;;;;;;;;;;22.32;37.05;100893.34;5085671;28;20481;-71
2023/04/22 11:55:13;;;;;;;;;;;;;;;22.59;37.80;100884.38;5086111;28;19966;-72
2023/04/22 11:57:39;;;;;;;;;;;;;;;22.66;37.07;100886.53;5102213;28;20442;-70
2023/04/22 12:00:06;;;;;;;;;;;;;;;22.94;36.77;100889.25;5098359;28;19932;-74
2023/04/22 12:02:31;;;;;;;;;;;;;;;22.89;37.64;100878.59;5079727;28;19929;-71
2023/04/22 12:04:57;;;;;;;;;;;;;;;23.09;38.89;100880.28;5088007;28;19942;-73
2023/04/22 12:07:25;;;;;;;;;;;;;;;22.97;36.61;100876.88;5087227;28;20593;-72
2023/04/22 12:09:54;;;;;;;;;;;;;;;23.02;36.33;100871.91;5069288;28;19937;-70
2023/04/22 12:12:24;;;;;;;;;;;;;;;23.37;35.75;100869.31;5069931;28;20769;-71
2023/04/22 12:14:49;;;;;;;;;;;;;;;23.08;36.19;100859.59;5088160;28;19929;-71
2023/04/22 12:17:18;;;;;;;;;;;;;;;23.37;38.29;100858.38;5080333;28;19956;-71
2023/04/22 12:19:47;;;;;;;;;;;;;;;23.50;35.66;100855.53;5067196;28;20380;-74
2023/04/22 12:22:26;;;;;;;;;;;;;;;24.08;36.35;100858.47;5079533;28;19940;-70
2023/04/22 12:24:52;;;;;;;;;;;;;;;23.65;35.88;100858.31;5070240;28;19937;-71
2023/04/22 12:27:18;;;;;;;;;;;;;;;23.62;35.77;100856.25;5079116;28;19952;-69
2023/04/22 12:29:54;;;;;;;;;;;;;;;23.18;35.63;100849.31;5098697;28;19934;-71
2023/04/22 12:32:20;;;;;;;;;;;;;;;23.17;36.48;100853.97;5060371;28;19929;-73
2023/04/22 12:34:46;;;;;;;;;;;;;;;23.61;36.28;100846.47;5094810;28;19932;-74
2023/04/22 12:37:12;;;;;;;;;;;;;;;23.78;35.13;100850.00;5093819;28;19956;-74
2023/04/22 12:39:37;;;;;;;;;;;;;;;23.20;35.70;100836.09;5062219;28;20274;-72
2023/04/22 12:42:04;;;;;;;;;;;;;;;22.91;35.98;100840.81;5097691;28;19931;-73